Bluefields, Nicaragua
Current Conditions -  °F | °C
As of 12:00 AM on Thursday 18 Dec 2014 (Local Time) from MROC Reporting Station
Clear Clear  
Wind Chill: 70°   Ceiling: Unl
Heat Index: 70°   Visibility: 6mi
Dew Point: 64°   Wind: 2mph
Humidity: 83%   Direction: NA
Pressure: 30.06"   Gusts: NA
Location:  12.01°N, 83.77°W
Report Text: MROC 180600Z VRB02KT CAVOK 21/18 A3006 NOSIG
Loading
Personal Weather Stations






























Interactive Weather Map New forecast layout! Learn more

10-Day Weather Forecast

Advertisements
Track Severe Weather on mobile